sensor_id;sensor_type;location;lat;lon;timestamp;pressure;altitude;pressure_sealevel;temperature;humidity
83716;BME280;73698;51.138;6.950;2024-02-16T00:00:04;100625.91;;;12.33;68.94
83716;BME280;73698;51.138;6.950;2024-02-16T00:02:30;100631.19;;;12.34;68.60
83716;BME280;73698;51.138;6.950;2024-02-16T00:04:57;100621.25;;;12.35;68.76
83716;BME280;73698;51.138;6.950;2024-02-16T00:07:23;100612.94;;;12.38;68.34
83716;BME280;73698;51.138;6.950;2024-02-16T00:09:48;100611.34;;;12.35;69.08
83716;BME280;73698;51.138;6.950;2024-02-16T00:12:13;100616.94;;;12.32;68.90
83716;BME280;73698;51.138;6.950;2024-02-16T00:14:40;100621.00;;;12.27;69.46
83716;BME280;73698;51.138;6.950;2024-02-16T00:17:06;100627.09;;;12.29;69.08
83716;BME280;73698;51.138;6.950;2024-02-16T00:19:32;100630.03;;;12.26;69.79
83716;BME280;73698;51.138;6.950;2024-02-16T00:21:57;100628.09;;;12.28;68.84
83716;BME280;73698;51.138;6.950;2024-02-16T00:24:23;100628.94;;;12.28;68.30
83716;BME280;73698;51.138;6.950;2024-02-16T00:26:48;100634.97;;;12.32;68.70
83716;BME280;73698;51.138;6.950;2024-02-16T00:29:14;100623.34;;;12.31;69.05
83716;BME280;73698;51.138;6.950;2024-02-16T00:31:40;100634.34;;;12.28;69.70
83716;BME280;73698;51.138;6.950;2024-02-16T00:34:05;100636.63;;;12.21;69.45
83716;BME280;73698;51.138;6.950;2024-02-16T00:36:31;100637.75;;;12.19;69.52
83716;BME280;73698;51.138;6.950;2024-02-16T00:38:59;100644.44;;;12.13;69.66
83716;BME280;73698;51.138;6.950;2024-02-16T00:41:24;100635.72;;;12.10;70.85
83716;BME280;73698;51.138;6.950;2024-02-16T00:43:50;100638.97;;;12.15;69.32
83716;BME280;73698;51.138;6.950;2024-02-16T00:46:17;100636.75;;;12.20;69.52
83716;BME280;73698;51.138;6.950;2024-02-16T00:48:43;100628.44;;;12.23;69.49
83716;BME280;73698;51.138;6.950;2024-02-16T00:51:09;100633.72;;;12.25;69.48
83716;BME280;73698;51.138;6.950;2024-02-16T00:53:34;100628.09;;;12.28;69.22
83716;BME280;73698;51.138;6.950;2024-02-16T00:55:59;100625.28;;;12.29;68.86
83716;BME280;73698;51.138;6.950;2024-02-16T00:58:25;100627.25;;;12.27;69.72
83716;BME280;73698;51.138;6.950;2024-02-16T01:00:50;100621.72;;;12.29;68.96
83716;BME280;73698;51.138;6.950;2024-02-16T01:03:16;100626.38;;;12.27;69.72
83716;BME280;73698;51.138;6.950;2024-02-16T01:05:41;100625.03;;;12.32;68.84
83716;BME280;73698;51.138;6.950;2024-02-16T01:08:07;100624.94;;;12.34;68.77
83716;BME280;73698;51.138;6.950;2024-02-16T01:10:32;100627.50;;;12.35;68.55
83716;BME280;73698;51.138;6.950;2024-02-16T01:12:57;100618.06;;;12.41;68.17
83716;BME280;73698;51.138;6.950;2024-02-16T01:15:23;100617.13;;;12.42;68.20
83716;BME280;73698;51.138;6.950;2024-02-16T01:17:48;100620.53;;;12.44;68.98
83716;BME280;73698;51.138;6.950;2024-02-16T01:20:15;100621.28;;;12.46;68.36
83716;BME280;73698;51.138;6.950;2024-02-16T01:22:41;100615.03;;;12.45;68.27
83716;BME280;73698;51.138;6.950;2024-02-16T01:25:07;100610.50;;;12.46;68.00
83716;BME280;73698;51.138;6.950;2024-02-16T01:27:34;100607.91;;;12.44;68.05
83716;BME280;73698;51.138;6.950;2024-02-16T01:29:59;100608.66;;;12.46;68.41
83716;BME280;73698;51.138;6.950;2024-02-16T01:32:26;100608.44;;;12.50;68.46
83716;BME280;73698;51.138;6.950;2024-02-16T01:34:51;100605.84;;;12.48;68.04
83716;BME280;73698;51.138;6.950;2024-02-16T01:37:17;100602.66;;;12.43;68.64
83716;BME280;73698;51.138;6.950;2024-02-16T01:39:42;100595.41;;;12.43;68.20
83716;BME280;73698;51.138;6.950;2024-02-16T01:42:07;100596.66;;;12.51;67.65
83716;BME280;73698;51.138;6.950;2024-02-16T01:44:33;100605.47;;;12.53;68.40
83716;BME280;73698;51.138;6.950;2024-02-16T01:46:58;100605.00;;;12.59;67.42
83716;BME280;73698;51.138;6.950;2024-02-16T01:49:24;100590.53;;;12.60;67.33
83716;BME280;73698;51.138;6.950;2024-02-16T01:51:49;100605.88;;;12.59;67.35
83716;BME280;73698;51.138;6.950;2024-02-16T01:54:15;100605.88;;;12.59;67.25
83716;BME280;73698;51.138;6.950;2024-02-16T01:56:44;100601.31;;;12.60;67.33
83716;BME280;73698;51.138;6.950;2024-02-16T01:59:09;100594.44;;;12.56;67.93
83716;BME280;73698;51.138;6.950;2024-02-16T02:01:35;100596.28;;;12.55;67.74
83716;BME280;73698;51.138;6.950;2024-02-16T02:04:01;100595.69;;;12.52;68.34
83716;BME280;73698;51.138;6.950;2024-02-16T02:06:26;100597.53;;;12.51;68.29
83716;BME280;73698;51.138;6.950;2024-02-16T02:08:52;100598.50;;;12.50;67.47
83716;BME280;73698;51.138;6.950;2024-02-16T02:11:17;100596.44;;;12.54;67.37
83716;BME280;73698;51.138;6.950;2024-02-16T02:13:43;100592.50;;;12.58;67.67
83716;BME280;73698;51.138;6.950;2024-02-16T02:16:09;100597.06;;;12.57;67.72
83716;BME280;73698;51.138;6.950;2024-02-16T02:18:35;100605.16;;;12.57;67.33
83716;BME280;73698;51.138;6.950;2024-02-16T02:21:00;100600.69;;;12.56;67.44
83716;BME280;73698;51.138;6.950;2024-02-16T02:23:26;100603.06;;;12.61;67.11
83716;BME280;73698;51.138;6.950;2024-02-16T02:25:51;100602.19;;;12.60;67.78
83716;BME280;73698;51.138;6.950;2024-02-16T02:28:16;100595.31;;;12.56;67.67
83716;BME280;73698;51.138;6.950;2024-02-16T02:30:43;100595.31;;;12.56;67.07
83716;BME280;73698;51.138;6.950;2024-02-16T02:33:10;100593.47;;;12.57;67.40
83716;BME280;73698;51.138;6.950;2024-02-16T02:35:38;100589.28;;;12.53;68.20
83716;BME280;73698;51.138;6.950;2024-02-16T02:38:03;100584.66;;;12.55;68.55
83716;BME280;73698;51.138;6.950;2024-02-16T02:40:30;100590.03;;;12.55;68.61
83716;BME280;73698;51.138;6.950;2024-02-16T02:42:55;100580.34;;;12.52;68.84
83716;BME280;73698;51.138;6.950;2024-02-16T02:45:20;100578.78;;;12.50;69.39
83716;BME280;73698;51.138;6.950;2024-02-16T02:47:46;100576.41;;;12.45;70.17
83716;BME280;73698;51.138;6.950;2024-02-16T02:50:11;100567.47;;;12.44;69.87
83716;BME280;73698;51.138;6.950;2024-02-16T02:52:37;100572.13;;;12.42;70.06
83716;BME280;73698;51.138;6.950;2024-02-16T02:55:03;100564.75;;;12.44;69.66
83716;BME280;73698;51.138;6.950;2024-02-16T02:57:28;100564.41;;;12.49;69.89
83716;BME280;73698;51.138;6.950;2024-02-16T03:00:05;100566.25;;;12.49;69.26
83716;BME280;73698;51.138;6.950;2024-02-16T03:02:39;100571.53;;;12.50;69.36
83716;BME280;73698;51.138;6.950;2024-02-16T03:05:06;100566.00;;;12.52;68.05
83716;BME280;73698;51.138;6.950;2024-02-16T03:07:34;100562.44;;;12.51;68.62
83716;BME280;73698;51.138;6.950;2024-02-16T03:10:00;100560.75;;;12.50;69.47
83716;BME280;73698;51.138;6.950;2024-02-16T03:12:25;100554.50;;;12.50;69.51
83716;BME280;73698;51.138;6.950;2024-02-16T03:14:51;100561.84;;;12.48;69.58
83716;BME280;73698;51.138;6.950;2024-02-16T03:17:17;100569.31;;;12.44;70.28
83716;BME280;73698;51.138;6.950;2024-02-16T03:19:42;100561.72;;;12.38;70.91
83716;BME280;73698;51.138;6.950;2024-02-16T03:22:07;100562.66;;;12.37;70.54
83716;BME280;73698;51.138;6.950;2024-02-16T03:24:33;100553.84;;;12.35;70.52
83716;BME280;73698;51.138;6.950;2024-02-16T03:26:59;100557.03;;;12.40;70.42
83716;BME280;73698;51.138;6.950;2024-02-16T03:29:25;100551.88;;;12.37;70.34
83716;BME280;73698;51.138;6.950;2024-02-16T03:31:51;100552.00;;;12.35;70.86
83716;BME280;73698;51.138;6.950;2024-02-16T03:34:16;100548.84;;;12.41;70.14
83716;BME280;73698;51.138;6.950;2024-02-16T03:36:42;100554.47;;;12.38;70.46
83716;BME280;73698;51.138;6.950;2024-02-16T03:39:07;100559.09;;;12.36;70.21
83716;BME280;73698;51.138;6.950;2024-02-16T03:41:34;100553.72;;;12.36;70.09
83716;BME280;73698;51.138;6.950;2024-02-16T03:43:59;100551.66;;;12.40;70.42
83716;BME280;73698;51.138;6.950;2024-02-16T03:46:25;100547.25;;;12.39;70.66
83716;BME280;73698;51.138;6.950;2024-02-16T03:48:52;100543.69;;;12.38;70.02
83716;BME280;73698;51.138;6.950;2024-02-16T03:51:17;100553.84;;;12.35;70.81
83716;BME280;73698;51.138;6.950;2024-02-16T03:53:43;100547.34;;;12.37;70.76
83716;BME280;73698;51.138;6.950;2024-02-16T03:56:10;100558.47;;;12.33;71.16
83716;BME280;73698;51.138;6.950;2024-02-16T03:58:36;100554.94;;;12.32;70.71
83716;BME280;73698;51.138;6.950;2024-02-16T04:01:01;100552.25;;;12.32;70.69
83716;BME280;73698;51.138;6.950;2024-02-16T04:03:27;100559.59;;;12.30;71.04
83716;BME280;73698;51.138;6.950;2024-02-16T04:05:52;100556.53;;;12.35;70.98
83716;BME280;73698;51.138;6.950;2024-02-16T04:08:18;100554.84;;;12.34;70.62
83716;BME280;73698;51.138;6.950;2024-02-16T04:10:45;100547.09;;;12.40;70.59
83716;BME280;73698;51.138;6.950;2024-02-16T04:13:10;100554.47;;;12.38;70.45
83716;BME280;73698;51.138;6.950;2024-02-16T04:15:36;100551.16;;;12.35;71.35
83716;BME280;73698;51.138;6.950;2024-02-16T04:18:01;100552.84;;;12.36;70.99
83716;BME280;73698;51.138;6.950;2024-02-16T04:20:27;100551.66;;;12.40;71.05
83716;BME280;73698;51.138;6.950;2024-02-16T04:22:52;100537.69;;;12.46;70.59
83716;BME280;73698;51.138;6.950;2024-02-16T04:25:18;100546.75;;;12.45;70.67
83716;BME280;73698;51.138;6.950;2024-02-16T04:27:43;100543.31;;;12.43;70.57
83716;BME280;73698;51.138;6.950;2024-02-16T04:30:09;100540.38;;;12.46;71.08
83716;BME280;73698;51.138;6.950;2024-02-16T04:32:34;100541.97;;;12.49;70.24
83716;BME280;73698;51.138;6.950;2024-02-16T04:34:59;100559.88;;;12.50;70.84
83716;BME280;73698;51.138;6.950;2024-02-16T04:37:25;100574.94;;;12.52;70.86
83716;BME280;73698;51.138;6.950;2024-02-16T04:39:51;100558.75;;;12.52;70.92
83716;BME280;73698;51.138;6.950;2024-02-16T04:42:17;100573.25;;;12.51;71.32
83716;BME280;73698;51.138;6.950;2024-02-16T04:44:42;100573.00;;;12.43;71.88
83716;BME280;73698;51.138;6.950;2024-02-16T04:47:08;100582.28;;;12.39;71.36
83716;BME280;73698;51.138;6.950;2024-02-16T04:49:34;100577.97;;;12.36;71.84
83716;BME280;73698;51.138;6.950;2024-02-16T04:52:00;100581.66;;;12.35;71.44
83716;BME280;73698;51.138;6.950;2024-02-16T04:54:25;100584.50;;;12.34;71.84
83716;BME280;73698;51.138;6.950;2024-02-16T04:56:51;100593.66;;;12.31;72.23
83716;BME280;73698;51.138;6.950;2024-02-16T04:59:17;100608.38;;;12.27;72.97
83716;BME280;73698;51.138;6.950;2024-02-16T05:01:46;100597.69;;;12.26;72.67
83716;BME280;73698;51.138;6.950;2024-02-16T05:04:12;100606.97;;;12.21;72.76
83716;BME280;73698;51.138;6.950;2024-02-16T05:06:41;100599.16;;;12.18;73.18
83716;BME280;73698;51.138;6.950;2024-02-16T05:09:07;100600.00;;;12.19;72.51
83716;BME280;73698;51.138;6.950;2024-02-16T05:11:32;100597.53;;;12.16;73.05
83716;BME280;73698;51.138;6.950;2024-02-16T05:13:58;100594.22;;;12.12;74.29
83716;BME280;73698;51.138;6.950;2024-02-16T05:16:23;100595.19;;;12.11;73.96
83716;BME280;73698;51.138;6.950;2024-02-16T05:18:49;100587.84;;;12.13;73.89
83716;BME280;73698;51.138;6.950;2024-02-16T05:21:14;100588.69;;;12.14;73.83
83716;BME280;73698;51.138;6.950;2024-02-16T05:23:40;100584.50;;;12.10;74.08
83716;BME280;73698;51.138;6.950;2024-02-16T05:26:05;100592.72;;;12.08;74.53
83716;BME280;73698;51.138;6.950;2024-02-16T05:28:30;100579.25;;;12.08;74.11
83716;BME280;73698;51.138;6.950;2024-02-16T05:30:57;100577.53;;;12.07;74.63
83716;BME280;73698;51.138;6.950;2024-02-16T05:33:25;100584.03;;;12.05;74.66
83716;BME280;73698;51.138;6.950;2024-02-16T05:35:52;100579.63;;;12.04;74.29
83716;BME280;73698;51.138;6.950;2024-02-16T05:38:20;100584.75;;;12.07;74.47
83716;BME280;73698;51.138;6.950;2024-02-16T05:40:57;100571.53;;;12.04;74.24
83716;BME280;73698;51.138;6.950;2024-02-16T05:43:22;100574.22;;;12.04;74.84
83716;BME280;73698;51.138;6.950;2024-02-16T05:45:49;100574.22;;;12.04;74.18
83716;BME280;73698;51.138;6.950;2024-02-16T05:48:14;100574.09;;;12.05;74.52
83716;BME280;73698;51.138;6.950;2024-02-16T05:50:40;100568.06;;;12.02;74.46
83716;BME280;73698;51.138;6.950;2024-02-16T05:53:06;100565.50;;;12.00;74.85
83716;BME280;73698;51.138;6.950;2024-02-16T05:55:31;100576.38;;;11.98;75.17
83716;BME280;73698;51.138;6.950;2024-02-16T05:57:57;100577.50;;;11.96;74.81
83716;BME280;73698;51.138;6.950;2024-02-16T06:00:23;100574.69;;;11.97;74.59
83716;BME280;73698;51.138;6.950;2024-02-16T06:02:49;100569.28;;;11.97;75.01
83716;BME280;73698;51.138;6.950;2024-02-16T06:05:14;100565.88;;;11.95;74.45
83716;BME280;73698;51.138;6.950;2024-02-16T06:07:40;100581.28;;;11.93;74.72
83716;BME280;73698;51.138;6.950;2024-02-16T06:10:06;100576.75;;;11.94;74.80
83716;BME280;73698;51.138;6.950;2024-02-16T06:12:38;100574.81;;;11.96;74.84
83716;BME280;73698;51.138;6.950;2024-02-16T06:15:05;100581.91;;;11.97;74.48
83716;BME280;73698;51.138;6.950;2024-02-16T06:17:30;100587.53;;;11.94;75.00
83716;BME280;73698;51.138;6.950;2024-02-16T06:19:56;100592.91;;;11.94;75.02
83716;BME280;73698;51.138;6.950;2024-02-16T06:22:21;100584.72;;;11.95;74.01
83716;BME280;73698;51.138;6.950;2024-02-16T06:24:47;100594.16;;;12.01;74.53
83716;BME280;73698;51.138;6.950;2024-02-16T06:27:13;100588.78;;;12.01;74.54
83716;BME280;73698;51.138;6.950;2024-02-16T06:29:38;100586.94;;;12.02;74.22
83716;BME280;73698;51.138;6.950;2024-02-16T06:32:04;100583.38;;;12.01;74.54
83716;BME280;73698;51.138;6.950;2024-02-16T06:34:30;100579.94;;;11.99;74.10
83716;BME280;73698;51.138;6.950;2024-02-16T06:36:56;100573.47;;;12.02;74.05
83716;BME280;73698;51.138;6.950;2024-02-16T06:39:22;100581.81;;;12.10;74.06
83716;BME280;73698;51.138;6.950;2024-02-16T06:41:47;100568.47;;;12.08;74.23
83716;BME280;73698;51.138;6.950;2024-02-16T06:44:15;100565.78;;;12.08;74.04
83716;BME280;73698;51.138;6.950;2024-02-16T06:46:41;100577.41;;;12.09;74.22
83716;BME280;73698;51.138;6.950;2024-02-16T06:49:07;100564.09;;;12.18;72.70
83716;BME280;73698;51.138;6.950;2024-02-16T06:51:32;100579.78;;;12.25;72.88
83716;BME280;73698;51.138;6.950;2024-02-16T06:53:58;100588.97;;;12.22;73.25
83716;BME280;73698;51.138;6.950;2024-02-16T06:56:23;100619.75;;;12.19;73.54
83716;BME280;73698;51.138;6.950;2024-02-16T06:58:49;100621.03;;;12.14;74.30
83716;BME280;73698;51.138;6.950;2024-02-16T07:01:15;100621.41;;;12.09;74.01
83716;BME280;73698;51.138;6.950;2024-02-16T07:03:41;100637.69;;;12.08;74.24
83716;BME280;73698;51.138;6.950;2024-02-16T07:06:08;100641.25;;;12.08;74.54
83716;BME280;73698;51.138;6.950;2024-02-16T07:08:38;100634.03;;;12.09;73.98
83716;BME280;73698;51.138;6.950;2024-02-16T07:11:04;100631.97;;;12.12;73.84
83716;BME280;73698;51.138;6.950;2024-02-16T07:13:34;100642.50;;;12.15;74.19
83716;BME280;73698;51.138;6.950;2024-02-16T07:16:00;100638.84;;;12.16;73.77
83716;BME280;73698;51.138;6.950;2024-02-16T07:18:25;100645.06;;;12.17;74.05
83716;BME280;73698;51.138;6.950;2024-02-16T07:20:51;100651.97;;;12.21;73.43
83716;BME280;73698;51.138;6.950;2024-02-16T07:23:16;100655.41;;;12.23;73.58
83716;BME280;73698;51.138;6.950;2024-02-16T07:25:43;100666.06;;;12.25;73.16
83716;BME280;73698;51.138;6.950;2024-02-16T07:28:09;100664.97;;;12.27;73.63
83716;BME280;73698;51.138;6.950;2024-02-16T07:30:36;100666.56;;;12.30;72.82
83716;BME280;73698;51.138;6.950;2024-02-16T07:33:05;100664.28;;;12.36;72.36
83716;BME280;73698;51.138;6.950;2024-02-16T07:35:35;100667.81;;;12.37;73.03
83716;BME280;73698;51.138;6.950;2024-02-16T07:38:04;100679.25;;;12.40;73.61
83716;BME280;73698;51.138;6.950;2024-02-16T07:40:30;100680.84;;;12.43;73.00
83716;BME280;73698;51.138;6.950;2024-02-16T07:42:56;100691.41;;;12.46;73.44
83716;BME280;73698;51.138;6.950;2024-02-16T07:45:22;100687.75;;;12.47;72.89
83716;BME280;73698;51.138;6.950;2024-02-16T07:47:47;100698.16;;;12.52;72.69
83716;BME280;73698;51.138;6.950;2024-02-16T07:50:13;100694.50;;;12.53;73.27
83716;BME280;73698;51.138;6.950;2024-02-16T07:52:39;100701.28;;;12.58;72.02
83716;BME280;73698;51.138;6.950;2024-02-16T07:55:06;100697.34;;;12.62;71.69
83716;BME280;73698;51.138;6.950;2024-02-16T07:57:31;100697.13;;;12.65;72.23
83716;BME280;73698;51.138;6.950;2024-02-16T07:59:57;100711.13;;;12.70;72.14
83716;BME280;73698;51.138;6.950;2024-02-16T08:02:22;100700.31;;;12.70;71.73
83716;BME280;73698;51.138;6.950;2024-02-16T08:04:52;100708.19;;;12.74;71.27
83716;BME280;73698;51.138;6.950;2024-02-16T08:07:17;100710.75;;;12.75;71.59
83716;BME280;73698;51.138;6.950;2024-02-16T08:09:46;100724.03;;;12.78;71.49
83716;BME280;73698;51.138;6.950;2024-02-16T08:12:12;100725.72;;;12.79;71.29
83716;BME280;73698;51.138;6.950;2024-02-16T08:14:42;100732.88;;;12.80;70.85
83716;BME280;73698;51.138;6.950;2024-02-16T08:17:08;100738.00;;;12.83;71.10
83716;BME280;73698;51.138;6.950;2024-02-16T08:19:35;100734.09;;;12.87;70.67
83716;BME280;73698;51.138;6.950;2024-02-16T08:22:02;100732.28;;;12.88;70.65
83716;BME280;73698;51.138;6.950;2024-02-16T08:24:28;100727.59;;;12.90;70.91
83716;BME280;73698;51.138;6.950;2024-02-16T08:26:54;100736.69;;;12.89;71.09
83716;BME280;73698;51.138;6.950;2024-02-16T08:29:19;100728.47;;;12.90;71.09
83716;BME280;73698;51.138;6.950;2024-02-16T08:31:48;100722.84;;;12.93;71.53
83716;BME280;73698;51.138;6.950;2024-02-16T08:34:14;100733.63;;;12.93;70.79
83716;BME280;73698;51.138;6.950;2024-02-16T08:36:46;100730.81;;;12.95;70.96
83716;BME280;73698;51.138;6.950;2024-02-16T08:39:14;100741.13;;;13.01;71.49
83716;BME280;73698;51.138;6.950;2024-02-16T08:41:39;100744.47;;;13.05;71.76
83716;BME280;73698;51.138;6.950;2024-02-16T08:44:06;100744.22;;;13.08;71.67
83716;BME280;73698;51.138;6.950;2024-02-16T08:46:38;100752.94;;;13.11;72.28
83716;BME280;73698;51.138;6.950;2024-02-16T08:49:05;100751.59;;;13.17;72.02
83716;BME280;73698;51.138;6.950;2024-02-16T08:51:33;100749.53;;;13.20;71.12
83716;BME280;73698;51.138;6.950;2024-02-16T08:54:00;100746.38;;;13.27;70.53
83716;BME280;73698;51.138;6.950;2024-02-16T08:56:25;100751.28;;;13.33;70.40
83716;BME280;73698;51.138;6.950;2024-02-16T08:58:51;100754.50;;;13.38;69.89
83716;BME280;73698;51.138;6.950;2024-02-16T09:01:17;100748.75;;;13.42;68.96
83716;BME280;73698;51.138;6.950;2024-02-16T09:03:42;100756.47;;;13.47;70.13
83716;BME280;73698;51.138;6.950;2024-02-16T09:06:08;100760.66;;;13.51;69.79
83716;BME280;73698;51.138;6.950;2024-02-16T09:08:33;100761.63;;;13.50;69.54
83716;BME280;73698;51.138;6.950;2024-02-16T09:11:03;100764.22;;;13.52;69.64
83716;BME280;73698;51.138;6.950;2024-02-16T09:13:35;100769.59;;;13.52;69.18
83716;BME280;73698;51.138;6.950;2024-02-16T09:16:02;100769.75;;;13.50;68.67
83716;BME280;73698;51.138;6.950;2024-02-16T09:18:28;100773.31;;;13.51;69.54
83716;BME280;73698;51.138;6.950;2024-02-16T09:20:54;100772.22;;;13.53;69.98
83716;BME280;73698;51.138;6.950;2024-02-16T09:23:19;100778.94;;;13.59;70.68
83716;BME280;73698;51.138;6.950;2024-02-16T09:25:44;100777.84;;;13.61;69.61
83716;BME280;73698;51.138;6.950;2024-02-16T09:28:12;100785.09;;;13.61;69.02
83716;BME280;73698;51.138;6.950;2024-02-16T09:30:38;100783.88;;;13.65;69.90
83716;BME280;73698;51.138;6.950;2024-02-16T09:33:03;100784.38;;;13.70;69.41
83716;BME280;73698;51.138;6.950;2024-02-16T09:35:28;100791.38;;;13.73;69.76
83716;BME280;73698;51.138;6.950;2024-02-16T09:37:54;100798.63;;;13.72;70.30
83716;BME280;73698;51.138;6.950;2024-02-16T09:40:19;100793.09;;;13.74;69.67
83716;BME280;73698;51.138;6.950;2024-02-16T09:42:48;100799.50;;;13.73;69.01
83716;BME280;73698;51.138;6.950;2024-02-16T09:45:17;100806.47;;;13.75;69.09
83716;BME280;73698;51.138;6.950;2024-02-16T09:47:43;100806.38;;;13.77;69.28
83716;BME280;73698;51.138;6.950;2024-02-16T09:50:09;100811.88;;;13.75;69.38
83716;BME280;73698;51.138;6.950;2024-02-16T09:52:36;100804.63;;;13.76;69.09
83716;BME280;73698;51.138;6.950;2024-02-16T09:55:02;100811.63;;;13.78;69.53
83716;BME280;73698;51.138;6.950;2024-02-16T09:57:27;100812.63;;;13.88;69.21
83716;BME280;73698;51.138;6.950;2024-02-16T09:59:53;100812.97;;;13.95;69.81
83716;BME280;73698;51.138;6.950;2024-02-16T10:02:18;100816.06;;;14.02;68.15
83716;BME280;73698;51.138;6.950;2024-02-16T10:04:44;100823.69;;;14.08;69.60
83716;BME280;73698;51.138;6.950;2024-02-16T10:07:09;100823.69;;;14.08;69.84
83716;BME280;73698;51.138;6.950;2024-02-16T10:09:35;100828.97;;;14.09;69.19
83716;BME280;73698;51.138;6.950;2024-02-16T10:12:01;100835.97;;;14.12;69.34
83716;BME280;73698;51.138;6.950;2024-02-16T10:14:26;100841.38;;;14.12;70.29
83716;BME280;73698;51.138;6.950;2024-02-16T10:17:03;100840.03;;;14.06;70.70
83716;BME280;73698;51.138;6.950;2024-02-16T10:19:30;100851.22;;;14.02;71.16
83716;BME280;73698;51.138;6.950;2024-02-16T10:22:11;100837.69;;;14.02;72.30
83716;BME280;73698;51.138;6.950;2024-02-16T10:24:37;100852.59;;;14.07;70.91
83716;BME280;73698;51.138;6.950;2024-02-16T10:27:17;100849.25;;;14.15;71.47
83716;BME280;73698;51.138;6.950;2024-02-16T10:29:47;100849.97;;;14.17;70.55
83716;BME280;73698;51.138;6.950;2024-02-16T10:32:16;100863.88;;;14.24;70.01
83716;BME280;73698;51.138;6.950;2024-02-16T10:34:45;100869.28;;;14.35;70.23
83716;BME280;73698;51.138;6.950;2024-02-16T10:37:12;100876.66;;;14.33;68.50
83716;BME280;73698;51.138;6.950;2024-02-16T10:39:40;100878.25;;;14.35;70.14
83716;BME280;73698;51.138;6.950;2024-02-16T10:42:06;100880.97;;;14.35;69.93
83716;BME280;73698;51.138;6.950;2024-02-16T10:44:34;100880.47;;;14.30;69.95
83716;BME280;73698;51.138;6.950;2024-02-16T10:47:00;100887.84;;;14.28;69.74
83716;BME280;73698;51.138;6.950;2024-02-16T10:49:26;100880.81;;;14.26;70.04
83716;BME280;73698;51.138;6.950;2024-02-16T10:51:55;100890.31;;;14.20;71.42
83716;BME280;73698;51.138;6.950;2024-02-16T10:54:27;100889.69;;;14.16;73.22
83716;BME280;73698;51.138;6.950;2024-02-16T10:56:54;100886.13;;;14.16;73.42
83716;BME280;73698;51.138;6.950;2024-02-16T10:59:20;100894.72;;;14.21;72.96
83716;BME280;73698;51.138;6.950;2024-02-16T11:01:45;100893.16;;;14.19;73.78
83716;BME280;73698;51.138;6.950;2024-02-16T11:04:13;100888.97;;;14.14;73.20
83716;BME280;73698;51.138;6.950;2024-02-16T11:06:46;100888.97;;;14.14;72.97
83716;BME280;73698;51.138;6.950;2024-02-16T11:11:54;100895.22;;;14.04;72.47
83716;BME280;73698;51.138;6.950;2024-02-16T11:14:21;100906.75;;;13.95;72.14
83716;BME280;73698;51.138;6.950;2024-02-16T11:16:48;100904.66;;;13.87;72.58
83716;BME280;73698;51.138;6.950;2024-02-16T11:19:14;100910.81;;;13.89;72.77
83716;BME280;73698;51.138;6.950;2024-02-16T11:21:57;100905.88;;;13.83;72.29
83716;BME280;73698;51.138;6.950;2024-02-16T11:24:30;100903.31;;;13.81;72.62
83716;BME280;73698;51.138;6.950;2024-02-16T11:26:56;100903.06;;;13.84;73.32
83716;BME280;73698;51.138;6.950;2024-02-16T11:29:22;100913.13;;;13.82;72.25
83716;BME280;73698;51.138;6.950;2024-02-16T11:31:47;100910.66;;;13.79;73.26
83716;BME280;73698;51.138;6.950;2024-02-16T11:34:25;100907.31;;;13.76;72.17
83716;BME280;73698;51.138;6.950;2024-02-16T11:36:55;100902.81;;;13.76;72.71
83716;BME280;73698;51.138;6.950;2024-02-16T11:39:21;100901.91;;;13.76;72.96
83716;BME280;73698;51.138;6.950;2024-02-16T11:41:47;100904.75;;;13.74;73.20
83716;BME280;73698;51.138;6.950;2024-02-16T11:44:14;100909.19;;;13.75;72.36
83716;BME280;73698;51.138;6.950;2024-02-16T11:46:42;100913.97;;;13.72;73.05
83716;BME280;73698;51.138;6.950;2024-02-16T11:49:07;100915.81;;;13.71;72.58
83716;BME280;73698;51.138;6.950;2024-02-16T11:51:34;100914.84;;;13.72;73.19
83716;BME280;73698;51.138;6.950;2024-02-16T11:53:59;100915.81;;;13.71;73.01
83716;BME280;73698;51.138;6.950;2024-02-16T11:56:25;100923.91;;;13.71;74.36
83716;BME280;73698;51.138;6.950;2024-02-16T11:58:52;100917.03;;;13.67;73.73
83716;BME280;73698;51.138;6.950;2024-02-16T12:01:18;100920.47;;;13.69;74.42
83716;BME280;73698;51.138;6.950;2024-02-16T12:03:43;100913.69;;;13.63;74.50
83716;BME280;73698;51.138;6.950;2024-02-16T12:06:08;100918.09;;;13.53;74.19
83716;BME280;73698;51.138;6.950;2024-02-16T12:08:34;100903.72;;;13.53;74.20
83716;BME280;73698;51.138;6.950;2024-02-16T12:11:00;100919.91;;;13.53;74.78
83716;BME280;73698;51.138;6.950;2024-02-16T12:13:27;100919.06;;;13.52;75.54
83716;BME280;73698;51.138;6.950;2024-02-16T12:15:53;100918.97;;;13.54;75.78
83716;BME280;73698;51.138;6.950;2024-02-16T12:18:19;100920.69;;;13.55;75.84
83716;BME280;73698;51.138;6.950;2024-02-16T12:20:59;100916.50;;;13.51;75.61
83716;BME280;73698;51.138;6.950;2024-02-16T12:23:24;100916.50;;;13.51;75.83
83716;BME280;73698;51.138;6.950;2024-02-16T12:25:50;100922.03;;;13.49;76.29
83716;BME280;73698;51.138;6.950;2024-02-16T12:28:15;100920.06;;;13.51;76.00
83716;BME280;73698;51.138;6.950;2024-02-16T12:30:41;100921.88;;;13.51;76.42
83716;BME280;73698;51.138;6.950;2024-02-16T12:33:06;100925.59;;;13.50;76.26
83716;BME280;73698;51.138;6.950;2024-02-16T12:35:32;100943.72;;;13.48;76.93
83716;BME280;73698;51.138;6.950;2024-02-16T12:37:57;100941.16;;;13.46;77.69
83716;BME280;73698;51.138;6.950;2024-02-16T12:40:22;100942.47;;;13.40;78.42
83716;BME280;73698;51.138;6.950;2024-02-16T12:42:48;100943.91;;;13.33;79.14
83716;BME280;73698;51.138;6.950;2024-02-16T12:45:13;100940.06;;;13.25;81.26
83716;BME280;73698;51.138;6.950;2024-02-16T12:47:41;100942.22;;;13.19;82.18